Airfield :
LOGIN :

Register | Disclaimer

   EN    FR    IT 

 










Legend :    VFR   Marginal VFR   IFR   Intensive IFR   Very Intensive IFR
Visi :
Ceiling :
>= 8 km
>= 3000ft
5 to 8 km
1000 to 3000 ft
1500m to 5 km
500 to 1000 ft
800 to 1500m
200 to 500 ft
< 800m
< 200 ft
Symbols :   Thunderstorms  Fog  Heavy snow  Heavy precipitations  Wind > 20 kt
SIGMETs :     Misc.  Thunderstorms  Icing  Turbulence  Mountain Waves  Volcanic Ashes







- Airport Elevation : 171 ft
- IATA code : EGC
- Download approach charts


LFBE - Bergerac

CURRENT METAR :
  • 161930Z AUTO 05004KT 010V100 CAVOK 07/05 Q1016 BECMG OVC013

EXPIRED METARs :
  • 161900Z AUTO 12005KT CAVOK 07/05 Q1015 BECMG OVC013
  • 161830Z AUTO 14005KT 9999 BKN049 06/05 Q1015 BECMG OVC013
  • 161800Z AUTO VRB02KT 9999 BKN046 07/05 Q1015 NOSIG
  • 161730Z AUTO VRB02KT 9999 FEW024 07/05 Q1015 NOSIG
  • 161700Z AUTO VRB02KT 9999 BKN023 BKN029 OVC040 08/05 Q1015 NOSIG

TAF TAF LFBE
Valid from the 16 at 18:00 until the 17 at 18:00 UTC


161700Z 1618/1718 18003KT 9999 BKN015
TEMPO 1618/1620 BKN030
BECMG 1620/1621 -RA OVC013
TEMPO 1701/1706 3000 RA OVC002
BECMG 1706/1708 SCT025
No reported NOTAMs for that airfield.



MET'MAP, your aeronautical weather chart ! - Copyright ORBIFLY December 2007 - Disclaimer

ORBIFLY MET'MAP TEAM :

Programming & Development : Alexandra Zaïnal
Concept & Development : Baudouin d'Aumeries
Co-Development & Prog : Marc-Olivier Méhu
Technical & hardware support : Manuel Goepfert

Contact : metmap@orbifly.com




SOURCES & CREDITS :

   NOAA